Terminal Aerodrome Forecast
Issued by NWS Northern Indiana

Home | Current Version | Previous Version | Graphics & Text | Print | Product List | Glossary On
Versions: 1 2 3 4 5 6 7 8 9 10 11 12 13 14 15 16 17 18 19
388
FTUS43 KIWX 220826 AAB
TAFFWA
TAF AMD
KFWA 220826Z 2208/2306 07012KT P6SM VCSH SCT015 BKN040
     FM221000 07012KT P6SM VCSH BKN015
      TEMPO 2210/2214 6SM -PL
     FM221700 06012KT P6SM OVC015
     FM230100 08011KT P6SM OVC008=

USA.gov is the U.S. government's official web portal to all federal, state and local government web resources and services.